Time;durP1;ratioP1;P1;durP2;ratioP2;P2;SDS_P1;SDS_P2;PMS_P1;PMS_P2;Temp;Humidity;BMP_temperature;BMP_pressure;BME280_temperature;BME280_humidity;BME280_pressure;Samples;Min_cycle;Max_cycle;Signal;HPM_P1;HPM_P2
2022/08/02 04:03:36;;;;;;;5.57;4.68;;;;;;;22.07;63.27;100457.84;5605894;31;79295;-55
2022/08/02 04:06:38;;;;;;;6.82;4.82;;;;;;;22.07;63.27;100457.84;5584102;31;33452;-55
2022/08/02 04:09:42;;;;;;;8.45;4.55;;;;;;;21.66;63.17;100463.53;5584138;32;34215;-55
2022/08/02 04:12:45;;;;;;;7.22;4.45;;;;;;;21.80;62.55;100474.00;5583993;32;33628;-55
2022/08/02 04:15:52;;;;;;;5.55;4.68;;;;;;;21.87;61.77;100465.97;5584069;31;34238;-55
2022/08/02 04:18:59;;;;;;;7.18;4.57;;;;;;;21.93;62.19;100463.78;5583795;31;33578;-56
2022/08/02 04:22:05;;;;;;;6.78;4.00;;;;;;;21.98;62.15;100466.22;5594939;31;33638;-56
2022/08/02 04:25:10;;;;;;;7.78;4.00;;;;;;;22.03;61.92;100468.69;5603192;31;33614;-55
2022/08/02 04:28:19;;;;;;;7.00;4.60;;;;;;;22.07;62.26;100477.75;5603225;31;33687;-55
2022/08/02 04:31:29;;;;;;;6.35;4.20;;;;;;;22.14;60.97;100477.91;5602657;31;33551;-55
2022/08/02 04:34:31;;;;;;;5.00;4.45;;;;;;;22.25;60.83;100483.63;5603084;31;33590;-56
2022/08/02 04:37:34;;;;;;;5.60;4.10;;;;;;;22.25;60.25;100480.87;5589560;31;33718;-55
2022/08/02 04:40:38;;;;;;;4.93;4.20;;;;;;;22.25;60.52;100481.69;5583813;32;34307;-55
2022/08/02 04:43:40;;;;;;;7.80;4.40;;;;;;;22.30;60.41;100482.56;5588824;31;33679;-56
2022/08/02 04:46:44;;;;;;;8.98;4.35;;;;;;;22.42;60.02;100483.25;5603260;31;34277;-56
2022/08/02 04:49:46;;;;;;;4.12;3.72;;;;;;;22.48;59.45;100486.44;5603446;31;34449;-56
2022/08/02 04:52:48;;;;;;;5.53;4.43;;;;;;;22.48;59.75;100491.91;5603064;31;34357;-55
2022/08/02 04:55:51;;;;;;;8.63;4.32;;;;;;;22.50;59.17;100490.41;5603283;31;33613;-55
2022/08/02 04:58:53;;;;;;;4.55;4.10;;;;;;;22.62;58.57;100489.50;5603308;31;34255;-55
2022/08/02 05:01:55;;;;;;;6.03;4.25;;;;;;;22.60;59.19;100491.00;5602883;31;33694;-55
2022/08/02 05:04:57;;;;;;;6.65;4.22;;;;;;;22.61;58.16;100490.63;5602964;31;33689;-56
2022/08/02 05:08:00;;;;;;;6.20;4.35;;;;;;;22.69;57.34;100491.59;5602754;31;33719;-56
2022/08/02 05:11:02;;;;;;;5.07;4.40;;;;;;;22.71;57.75;100502.94;5602692;31;33652;-56
2022/08/02 05:14:05;;;;;;;9.48;4.07;;;;;;;22.79;57.55;100510.16;5593752;31;33705;-55
2022/08/02 05:17:07;;;;;;;6.62;4.12;;;;;;;22.86;57.16;100510.28;5589951;31;34046;-55
2022/08/02 05:20:12;;;;;;;10.48;4.45;;;;;;;22.86;56.65;100504.81;5590162;31;33849;-55
2022/08/02 05:23:14;;;;;;;11.35;4.72;;;;;;;22.91;56.82;100507.28;5581460;31;33538;-55
2022/08/02 05:26:16;;;;;;;15.40;4.70;;;;;;;22.96;57.76;100506.22;5570439;32;33691;-55
2022/08/02 05:29:18;;;;;;;8.60;4.57;;;;;;;23.00;57.25;100515.25;5570191;32;34295;-55
2022/08/02 05:32:21;;;;;;;6.03;4.45;;;;;;;23.20;55.82;100516.03;5570000;32;34350;-56
2022/08/02 05:35:26;;;;;;;7.03;4.57;;;;;;;23.30;55.35;100531.84;5569990;32;34069;-55
2022/08/02 05:38:31;;;;;;;9.27;4.05;;;;;;;23.36;54.70;100540.56;5570169;32;34336;-56
2022/08/02 05:41:38;;;;;;;5.18;3.90;;;;;;;23.35;54.57;100536.25;5569056;32;34056;-57
2022/08/02 05:44:40;;;;;;;8.73;4.85;;;;;;;23.42;54.47;100539.91;5569520;32;33607;-55
2022/08/02 05:47:43;;;;;;;5.15;4.18;;;;;;;23.50;54.34;100534.56;5569307;32;34199;-56
2022/08/02 05:50:49;;;;;;;7.55;4.35;;;;;;;23.67;53.35;100542.28;5569226;32;33641;-56
2022/08/02 05:53:59;;;;;;;7.60;3.90;;;;;;;23.78;54.47;100551.50;5569582;32;34337;-55
2022/08/02 05:57:13;;;;;;;6.12;4.28;;;;;;;23.87;53.22;100549.31;5568988;32;34373;-56
2022/08/02 06:00:15;;;;;;;5.12;3.87;;;;;;;23.89;52.75;100546.19;5569544;32;34334;-55
2022/08/02 06:03:25;;;;;;;6.87;4.12;;;;;;;24.00;52.36;100546.38;5569351;32;33611;-55
2022/08/02 06:06:28;;;;;;;7.45;3.95;;;;;;;24.14;52.31;100546.59;5569615;32;34249;-56
2022/08/02 06:09:32;;;;;;;13.90;4.15;;;;;;;24.22;51.97;100547.50;5569538;32;33818;-55
2022/08/02 06:12:48;;;;;;;6.03;3.95;;;;;;;24.30;51.84;100544.47;5569694;32;33745;-55
2022/08/02 06:15:51;;;;;;;9.20;4.07;;;;;;;24.37;50.89;100549.28;5569519;32;33551;-56
2022/08/02 06:18:57;;;;;;;9.65;3.47;;;;;;;24.46;50.21;100538.87;5569646;32;34046;-55
2022/08/02 06:22:13;;;;;;;6.75;3.37;;;;;;;24.53;49.98;100543.66;5569319;32;34394;-55
2022/08/02 06:25:37;;;;;;;11.02;4.05;;;;;;;24.55;49.37;100555.03;5568199;32;33815;-55
2022/08/02 06:28:54;;;;;;;7.53;3.75;;;;;;;24.65;47.86;100562.63;5569427;32;33789;-55
2022/08/02 06:31:57;;;;;;;10.40;3.50;;;;;;;24.70;47.64;100548.59;5575006;31;33771;-56
2022/08/02 06:35:00;;;;;;;9.55;3.35;;;;;;;24.74;48.02;100546.69;5578269;31;33229;-56
2022/08/02 06:38:03;;;;;;;13.38;3.67;;;;;;;24.99;47.54;100557.16;5580391;31;33806;-55
2022/08/02 06:41:08;;;;;;;10.32;4.25;;;;;;;25.04;48.05;100552.16;5588432;31;33771;-55
2022/08/02 06:44:13;;;;;;;10.60;3.90;;;;;;;25.10;47.41;100547.12;5589030;31;33583;-55
2022/08/02 06:47:35;;;;;;;5.35;3.60;;;;;;;25.09;47.72;100557.28;5587505;31;33622;-57
2022/08/02 06:50:38;;;;;;;5.15;3.30;;;;;;;25.15;46.59;100554.25;5588723;31;33726;-56
2022/08/02 06:53:41;;;;;;;5.43;3.55;;;;;;;25.20;46.87;100559.37;5588608;31;33288;-56
2022/08/02 06:56:43;;;;;;;4.53;3.47;;;;;;;25.22;46.02;100552.37;5588513;31;34462;-56
2022/08/02 06:59:45;;;;;;;7.25;4.05;;;;;;;25.35;46.58;100554.84;5588626;31;33671;-55
2022/08/02 07:02:48;;;;;;;4.03;3.05;;;;;;;25.47;45.62;100557.34;5588831;31;34240;-55
2022/08/02 07:05:52;;;;;;;5.87;3.30;;;;;;;25.43;46.31;100560.06;5588655;31;33725;-55
2022/08/02 07:08:54;;;;;;;6.75;3.53;;;;;;;25.52;45.13;100555.03;5588785;31;33672;-55
2022/08/02 07:12:16;;;;;;;3.35;3.05;;;;;;;25.47;44.42;100549.09;5588861;31;34303;-55
2022/08/02 07:15:18;;;;;;;4.80;3.12;;;;;;;25.44;45.43;100550.66;5588572;31;34282;-56
2022/08/02 07:18:22;;;;;;;7.45;3.67;;;;;;;25.53;48.85;100551.12;5588640;31;33667;-56
2022/08/02 07:21:24;;;;;;;13.25;3.50;;;;;;;25.62;46.44;100550.81;5587975;31;33621;-55
2022/08/02 07:24:46;;;;;;;11.90;3.97;;;;;;;25.67;46.14;100547.72;5588415;31;33650;-56
2022/08/02 07:27:49;;;;;;;10.25;3.90;;;;;;;25.75;45.85;100546.59;5588335;31;34302;-56
2022/08/02 07:30:51;;;;;;;15.45;4.50;;;;;;;25.75;46.69;100554.06;5587184;31;33711;-56
2022/08/02 07:33:54;;;;;;;6.20;3.85;;;;;;;25.91;46.65;100545.59;5523163;32;34368;-57
2022/08/02 07:36:56;;;;;;;7.53;3.40;;;;;;;25.89;45.38;100553.41;5541272;32;34626;-55
2022/08/02 07:40:01;;;;;;;4.80;3.75;;;;;;;25.92;46.00;100550.69;5548657;32;33581;-56
2022/08/02 07:43:06;;;;;;;6.05;3.70;;;;;;;26.00;46.47;100546.06;5549117;32;33648;-55
2022/08/02 07:46:08;;;;;;;16.87;4.15;;;;;;;26.05;45.89;100542.16;5548985;32;33714;-55
2022/08/02 07:49:17;;;;;;;6.10;3.85;;;;;;;26.05;45.76;100542.94;5548330;32;33596;-56
2022/08/02 07:52:19;;;;;;;7.53;3.70;;;;;;;26.14;45.81;100548.91;5549125;32;33622;-56
2022/08/02 07:55:21;;;;;;;7.82;3.60;;;;;;;26.05;46.49;100542.94;5548044;32;33813;-56
2022/08/02 07:58:24;;;;;;;11.90;3.80;;;;;;;26.04;45.35;100537.84;5548505;32;33635;-56
2022/08/02 08:01:26;;;;;;;9.02;3.70;;;;;;;26.12;45.64;100540.25;5548452;32;33685;-56
2022/08/02 08:04:29;;;;;;;5.22;3.30;;;;;;;26.23;45.18;100535.63;5548474;32;34391;-56
2022/08/02 08:07:32;;;;;;;10.65;3.95;;;;;;;26.33;46.47;100538.84;5548556;32;34235;-56
2022/08/02 08:10:34;;;;;;;11.90;4.00;;;;;;;26.42;45.37;100536.50;5548699;32;33373;-56
2022/08/02 08:13:36;;;;;;;5.87;3.67;;;;;;;26.50;44.67;100535.41;5548266;32;33631;-55
2022/08/02 08:16:38;;;;;;;21.98;4.10;;;;;;;26.56;45.23;100538.59;5548808;32;34432;-56
2022/08/02 08:19:41;;;;;;;7.43;3.60;;;;;;;26.59;47.06;100541.38;5548349;32;33755;-56
2022/08/02 08:22:53;;;;;;;5.15;3.95;;;;;;;26.69;45.41;100548.87;5548601;32;33673;-56
2022/08/02 08:25:55;;;;;;;7.87;3.60;;;;;;;26.75;44.95;100551.25;5548329;32;33700;-56
2022/08/02 08:28:58;;;;;;;8.65;4.00;;;;;;;26.73;45.66;100553.59;5548522;32;34268;-56
2022/08/02 08:32:00;;;;;;;12.15;4.05;;;;;;;26.78;44.61;100550.47;5547586;32;33547;-56
2022/08/02 08:35:05;;;;;;;6.60;3.83;;;;;;;26.79;45.07;100557.53;5548296;32;34385;-56
2022/08/02 08:38:08;;;;;;;5.55;3.62;;;;;;;26.86;44.31;100554.84;5548201;32;33724;-56
2022/08/02 08:41:10;;;;;;;10.05;3.53;;;;;;;26.85;43.35;100553.25;5548212;32;33601;-56
2022/08/02 08:44:14;;;;;;;10.32;3.97;;;;;;;26.89;45.30;100556.81;5547755;32;34313;-56
2022/08/02 08:47:19;;;;;;;40.43;5.33;;;;;;;26.89;43.67;100554.84;5547840;32;33831;-56
2022/08/02 08:50:25;;;;;;;15.70;5.15;;;;;;;26.89;43.50;100554.06;5550817;32;34281;-56
2022/08/02 08:53:28;;;;;;;;;;;;;;;26.88;43.38;100555.22;5551094;32;33639;-56
2022/08/02 08:56:39;;;;;;;7.18;3.80;;;;;;;26.90;43.31;100558.38;5550958;32;34829;-56
2022/08/02 08:59:41;;;;;;;13.73;4.12;;;;;;;26.88;43.17;100564.25;5550660;32;34827;-56
2022/08/02 09:02:44;;;;;;;8.68;3.80;;;;;;;26.94;42.79;100561.94;5557498;31;33576;-56
2022/08/02 09:05:46;;;;;;;11.02;4.25;;;;;;;26.89;42.58;100560.34;5578932;31;34421;-56
2022/08/02 09:08:49;;;;;;;8.80;3.90;;;;;;;26.87;42.83;100559.16;5578998;31;34315;-56
2022/08/02 09:11:51;;;;;;;22.65;4.15;;;;;;;26.92;43.75;100564.28;5576223;31;33938;-56
2022/08/02 09:14:55;;;;;;;6.43;3.15;;;;;;;26.99;43.45;100560.75;5579346;31;33564;-56
2022/08/02 09:17:57;;;;;;;4.18;3.53;;;;;;;27.07;41.33;100565.91;5569115;31;33740;-55
2022/08/02 09:21:04;;;;;;;8.52;3.83;;;;;;;27.07;42.03;100554.91;5569150;32;33778;-56
2022/08/02 09:24:18;;;;;;;7.07;3.75;;;;;;;26.99;42.95;100555.25;5561107;32;33725;-55
2022/08/02 09:27:22;;;;;;;7.18;3.53;;;;;;;27.06;42.35;100564.34;5553609;32;34293;-56
2022/08/02 09:30:27;;;;;;;5.18;3.70;;;;;;;27.22;41.26;100566.78;5561126;31;34534;-56
2022/08/02 09:33:30;;;;;;;;;;;;;;;27.24;40.79;100566.37;5557477;32;33781;-56
2022/08/02 09:36:43;;;;;;;16.12;4.10;;;;;;;27.22;41.51;100564.03;5556784;32;33882;-56
2022/08/02 09:39:45;;;;;;;6.80;3.92;;;;;;;27.27;41.68;100558.13;5557246;32;34335;-56
2022/08/02 09:42:58;;;;;;;9.73;4.00;;;;;;;27.33;41.41;100564.06;5558146;32;34328;-57
2022/08/02 09:46:13;;;;;;;5.45;3.67;;;;;;;27.36;41.21;100558.56;5552850;32;33700;-56
2022/08/02 09:49:18;;;;;;;7.68;3.45;;;;;;;27.36;40.83;100557.78;5552057;32;34381;-56
2022/08/02 09:52:28;;;;;;;5.57;3.30;;;;;;;27.47;40.04;100561.31;5562996;32;33328;-56
2022/08/02 09:55:54;;;;;;;4.85;3.55;;;;;;;27.51;40.46;100551.09;5559983;32;33695;-56
2022/08/02 09:58:57;;;;;;;6.53;2.97;;;;;;;27.55;41.33;100549.16;5553273;32;33711;-56
2022/08/02 10:02:07;;;;;;;6.80;3.00;;;;;;;27.55;40.18;100537.31;5563563;32;33808;-56
2022/08/02 10:05:16;;;;;;;5.47;3.17;;;;;;;27.62;39.11;100543.66;5569264;32;34554;-56
2022/08/02 10:08:21;;;;;;;5.20;2.92;;;;;;;27.63;40.42;100544.44;5555647;32;33577;-56
2022/08/02 10:11:25;;;;;;;5.37;2.62;;;;;;;27.63;39.17;100539.72;5553771;32;33627;-55
2022/08/02 10:14:27;;;;;;;5.22;2.30;;;;;;;27.68;38.46;100538.50;5564586;32;33867;-56
2022/08/02 10:17:29;;;;;;;6.07;2.80;;;;;;;27.61;38.60;100538.50;5555726;32;33242;-55
2022/08/02 10:20:39;;;;;;;5.93;2.97;;;;;;;27.73;38.30;100531.84;5554074;32;34497;-56
2022/08/02 10:23:43;;;;;;;4.62;2.53;;;;;;;27.82;37.61;100527.53;5566556;32;34590;-56
2022/08/02 10:26:46;;;;;;;3.67;2.83;;;;;;;27.81;38.17;100530.69;5552940;32;34392;-56
2022/08/02 10:29:50;;;;;;;2.90;2.10;;;;;;;27.80;38.36;100529.13;5556569;32;33693;-56
2022/08/02 10:33:00;;;;;;;4.70;2.80;;;;;;;27.96;36.77;100523.22;5552188;32;34421;-57
2022/08/02 10:36:03;;;;;;;;;;;;;;;28.02;38.10;100519.66;5561258;31;33212;-56
2022/08/02 10:39:09;;;;;;;3.80;2.53;;;;;;;28.01;37.60;100511.78;5573812;31;34607;-56
2022/08/02 10:42:32;;;;;;;4.72;2.60;;;;;;;28.02;39.43;100513.38;5571208;31;33372;-56
2022/08/02 10:45:34;;;;;;;2.83;2.53;;;;;;;28.11;37.88;100510.97;5576352;31;34435;-56
2022/08/02 10:49:06;;;;;;;4.50;2.80;;;;;;;28.06;38.14;100503.91;5574259;31;34896;-56
2022/08/02 10:52:31;;;;;;;2.67;2.42;;;;;;;28.20;37.91;100503.06;5567542;31;33745;-56
2022/08/02 10:55:43;;;;;;;;;;;;;;;28.14;37.98;100501.13;5575262;31;33668;-56
2022/08/02 10:58:46;;;;;;;6.32;2.62;;;;;;;28.14;38.65;100501.13;5574991;31;34241;-56
2022/08/02 11:01:49;;;;;;;5.57;2.50;;;;;;;28.17;37.43;100490.09;5567431;31;33602;-56
2022/08/02 11:04:52;;;;;;;5.43;2.70;;;;;;;28.22;39.02;100494.44;5567339;31;32277;-56
2022/08/02 11:07:56;;;;;;;9.02;2.62;;;;;;;28.23;38.45;100490.47;5568208;31;33687;-57
2022/08/02 11:11:08;;;;;;;5.87;2.30;;;;;;;28.28;39.08;100487.31;5569189;31;33780;-56
2022/08/02 11:14:13;;;;;;;4.15;2.50;;;;;;;28.28;37.93;100487.31;5572931;31;34065;-56
2022/08/02 11:17:17;;;;;;;4.57;2.35;;;;;;;28.53;35.99;100490.78;5575572;31;33325;-56
2022/08/02 11:20:21;;;;;;;4.68;2.42;;;;;;;28.65;37.04;100484.06;5575209;31;34457;-56
2022/08/02 11:23:34;;;;;;;5.18;2.62;;;;;;;28.58;36.50;100481.34;5578178;31;33382;-56
2022/08/02 11:26:47;;;;;;;4.62;2.53;;;;;;;28.51;36.57;100484.09;5570913;31;33591;-56
2022/08/02 11:29:49;;;;;;;6.10;2.72;;;;;;;28.44;37.80;100479.41;5564910;32;33304;-56
2022/08/02 11:32:58;;;;;;;4.93;2.65;;;;;;;28.49;37.31;100472.69;5549540;32;33804;-56
2022/08/02 11:36:04;;;;;;;4.78;2.80;;;;;;;28.62;37.85;100470.28;5549589;32;34008;-55
2022/08/02 11:39:15;;;;;;;3.12;2.70;;;;;;;28.80;37.13;100470.97;5558926;32;33769;-57
2022/08/02 11:42:17;;;;;;;3.00;2.70;;;;;;;28.77;36.89;100477.28;5548556;32;33753;-56
2022/08/02 11:45:24;;;;;;;3.15;2.55;;;;;;;28.62;36.99;100473.03;5549447;32;33727;-56
2022/08/02 11:48:36;;;;;;;3.47;2.62;;;;;;;28.63;36.67;100485.63;5551033;32;33822;-56
2022/08/02 11:51:38;;;;;;;3.85;2.60;;;;;;;28.60;37.72;100481.69;5549046;32;33687;-56
2022/08/02 11:54:43;;;;;;;3.25;2.95;;;;;;;28.64;37.34;100478.94;5548903;32;33640;-56
2022/08/02 11:57:47;;;;;;;5.95;3.05;;;;;;;28.61;37.65;100476.97;5549284;32;33453;-56
2022/08/02 12:01:06;;;;;;;3.10;2.70;;;;;;;28.67;37.27;100481.66;5548281;32;33830;-56
2022/08/02 12:04:08;;;;;;;2.65;2.42;;;;;;;28.71;36.87;100482.47;5549317;32;33706;-56
2022/08/02 12:07:10;;;;;;;2.67;2.33;;;;;;;28.68;36.86;100479.72;5548397;32;33762;-56
2022/08/02 12:10:17;;;;;;;;;;;;;;;28.55;37.14;100482.91;5549337;32;33725;-56
2022/08/02 12:13:20;;;;;;;4.28;2.55;;;;;;;28.56;37.46;100481.72;5548813;32;33729;-56
2022/08/02 12:19:52;;;;;;;4.35;2.47;;;;;;;28.35;37.77;100470.75;5548219;32;33777;-55
2022/08/02 12:22:54;;;;;;;4.20;2.30;;;;;;;28.40;37.90;100467.59;5553206;32;33852;-56
2022/08/02 12:26:08;;;;;;;4.75;2.83;;;;;;;28.40;37.76;100470.34;5553215;32;34357;-55
2022/08/02 12:29:28;;;;;;;4.22;2.65;;;;;;;28.42;37.27;100465.25;5560359;32;34434;-57
2022/08/02 12:32:51;;;;;;;4.12;2.78;;;;;;;28.47;37.69;100458.53;5553702;32;33829;-56
2022/08/02 12:35:54;;;;;;;2.95;2.58;;;;;;;28.59;38.00;100463.59;5556079;32;34082;-56
2022/08/02 12:38:58;;;;;;;5.95;2.65;;;;;;;28.45;38.24;100466.41;5555754;32;33683;-56
2022/08/02 12:42:01;;;;;;;3.25;2.58;;;;;;;28.38;39.28;100458.94;5558836;32;33705;-56
2022/08/02 12:45:04;;;;;;;6.15;2.72;;;;;;;28.36;39.85;100458.53;5550981;32;34236;-57
2022/08/02 12:48:06;;;;;;;4.37;2.45;;;;;;;28.31;38.72;100448.72;5551066;32;33720;-57
2022/08/02 12:51:29;;;;;;;3.85;2.60;;;;;;;28.48;38.15;100455.38;5550913;32;33665;-56
2022/08/02 12:54:51;;;;;;;3.08;2.30;;;;;;;28.47;38.92;100451.03;5558503;32;33817;-56
2022/08/02 12:57:59;;;;;;;2.70;2.45;;;;;;;28.44;39.23;100456.56;5568895;32;33832;-56
2022/08/02 13:01:01;;;;;;;3.28;2.33;;;;;;;28.36;39.61;100452.25;5550783;32;33699;-56
2022/08/02 13:04:04;;;;;;;3.20;2.30;;;;;;;28.29;39.50;100453.06;5560581;32;33840;-56
2022/08/02 13:07:14;;;;;;;2.97;2.15;;;;;;;28.37;39.22;100446.31;5550852;32;33830;-56
2022/08/02 13:10:17;;;;;;;4.97;2.70;;;;;;;28.47;38.97;100447.50;5552154;32;34408;-56
2022/08/02 13:13:19;;;;;;;4.57;2.62;;;;;;;28.57;38.71;100452.16;5553811;32;34315;-56
2022/08/02 13:16:23;;;;;;;3.87;2.00;;;;;;;28.62;38.68;100445.47;5550828;32;34354;-56
2022/08/02 13:19:32;;;;;;;4.05;2.08;;;;;;;28.94;37.15;100437.78;5553219;32;33733;-56
2022/08/02 13:22:35;;;;;;;2.85;1.90;;;;;;;28.98;37.45;100429.50;5550699;32;33832;-55
2022/08/02 13:25:41;;;;;;;3.12;1.90;;;;;;;28.84;37.24;100435.06;5564705;32;34420;-56
2022/08/02 13:28:44;;;;;;;2.50;2.10;;;;;;;28.89;37.46;100435.44;5569124;32;33685;-56
2022/08/02 13:31:46;;;;;;;4.95;2.05;;;;;;;28.92;36.98;100420.84;5556587;32;33606;-57
2022/08/02 13:34:48;;;;;;;2.03;1.83;;;;;;;29.09;37.48;100432.97;5563810;32;33456;-57
2022/08/02 13:37:53;;;;;;;4.90;2.00;;;;;;;29.18;37.28;100432.53;5563920;32;34416;-56
2022/08/02 13:41:07;;;;;;;1.80;1.70;;;;;;;29.20;36.18;100425.38;5569074;32;33779;-55
2022/08/02 13:44:10;;;;;;;3.90;2.00;;;;;;;29.23;36.35;100427.34;5549254;32;33625;-56
2022/08/02 13:47:12;;;;;;;4.80;2.12;;;;;;;29.23;36.59;100419.06;5550500;32;33989;-56
2022/08/02 13:50:15;;;;;;;2.75;1.83;;;;;;;29.38;36.26;100425.25;5550534;32;33731;-56
2022/08/02 13:53:17;;;;;;;2.10;1.90;;;;;;;29.28;36.21;100428.91;5550577;32;33821;-55
2022/08/02 13:56:20;;;;;;;3.00;1.70;;;;;;;29.21;35.89;100423.44;5550603;32;34314;-56
2022/08/02 13:59:37;;;;;;;8.00;1.83;;;;;;;29.08;36.24;100423.13;5549249;32;33985;-56
2022/08/02 14:02:59;;;;;;;2.40;1.60;;;;;;;28.92;36.27;100417.31;5549628;32;34359;-56
2022/08/02 14:06:01;;;;;;;1.98;1.20;;;;;;;28.86;36.33;100421.69;5550330;32;34459;-56
2022/08/02 14:09:03;;;;;;;6.22;1.70;;;;;;;28.89;34.72;100421.66;5553509;32;33985;-56
2022/08/02 14:12:08;;;;;;;7.95;1.67;;;;;;;28.88;35.45;100411.81;5569890;32;34547;-56
2022/08/02 14:15:11;;;;;;;2.58;1.27;;;;;;;28.84;35.51;100413.81;5565172;32;33772;-56
2022/08/02 14:18:14;;;;;;;4.75;1.50;;;;;;;29.09;34.56;100413.66;5556177;32;33946;-56
2022/08/02 14:21:16;;;;;;;1.33;1.17;;;;;;;29.27;33.29;100419.03;5557273;32;33676;-56
2022/08/02 14:24:20;;;;;;;5.45;1.08;;;;;;;29.17;34.29;100406.91;5549133;32;33887;-56
2022/08/02 14:27:22;;;;;;;2.35;1.40;;;;;;;29.29;33.34;100407.59;5558216;32;33629;-56
2022/08/02 14:30:25;;;;;;;1.30;1.08;;;;;;;29.41;32.69;100398.81;5568233;32;33822;-56
2022/08/02 14:33:27;;;;;;;1.20;1.10;;;;;;;29.35;32.92;100403.97;5563494;32;33743;-56
2022/08/02 14:36:29;;;;;;;2.03;1.33;;;;;;;29.49;32.21;100409.38;5559687;32;33742;-56
2022/08/02 14:39:31;;;;;;;2.40;1.17;;;;;;;29.40;32.74;100391.69;5569343;32;33683;-56
2022/08/02 14:42:54;;;;;;;1.95;1.00;;;;;;;29.47;32.69;100391.62;5560770;32;33666;-55
2022/08/02 14:45:56;;;;;;;3.03;1.08;;;;;;;29.37;32.06;100403.56;5563273;32;33456;-56
2022/08/02 14:49:02;;;;;;;1.05;0.88;;;;;;;29.44;32.25;100396.03;5550849;32;33753;-55
